createdAt,value
2023-04-02T10:47:57.727Z,53.00
2023-04-02T10:51:12.184Z,58.00
2023-04-02T10:54:24.048Z,61.90
2023-04-02T10:57:17.134Z,63.80
2023-04-02T11:00:16.395Z,63.70
2023-04-02T11:03:31.766Z,67.80
2023-04-02T11:06:30.810Z,65.80
2023-04-02T11:09:22.073Z,65.80
2023-04-02T11:12:31.548Z,65.60
2023-04-02T11:15:20.887Z,66.80
2023-04-02T11:18:22.777Z,66.40
2023-04-02T11:21:51.112Z,68.10
2023-04-02T11:24:47.431Z,67.00
2023-04-02T11:27:36.617Z,68.70
2023-04-02T11:30:27.053Z,69.80
2023-04-02T11:33:43.095Z,69.70
2023-04-02T11:37:00.380Z,70.80
2023-04-02T11:39:56.819Z,70.40
2023-04-02T11:42:46.590Z,69.70
2023-04-02T11:45:53.748Z,67.60
2023-04-02T11:48:41.528Z,68.40
2023-04-02T11:51:50.799Z,66.60
2023-04-02T11:54:40.443Z,67.80
2023-04-02T11:57:47.307Z,67.80
2023-04-02T12:01:14.892Z,70.10
2023-04-02T12:04:38.388Z,70.30
2023-04-02T12:07:56.162Z,71.40
2023-04-02T12:10:55.778Z,72.10
2023-04-02T12:13:52.725Z,73.20
2023-04-02T12:16:41.461Z,71.60
2023-04-02T12:19:31.403Z,71.20
2023-04-02T12:22:24.154Z,70.40
2023-04-02T12:25:27.013Z,70.40
2023-04-02T12:28:21.029Z,68.10
2023-04-02T12:31:18.425Z,65.90
2023-04-02T12:34:13.641Z,67.00
2023-04-02T12:37:02.991Z,66.40
2023-04-02T12:39:56.269Z,67.40
2023-04-02T12:42:44.089Z,69.20
2023-04-02T12:45:33.967Z,70.60
2023-04-02T12:48:23.269Z,72.80
2023-04-02T12:51:11.081Z,69.10
2023-04-02T12:53:58.589Z,70.60
2023-04-02T12:56:46.299Z,69.70
2023-04-02T12:59:36.394Z,69.60
2023-04-02T13:02:26.050Z,71.70
2023-04-02T13:05:33.051Z,74.20
2023-04-02T13:08:24.107Z,74.00
2023-04-02T13:11:11.346Z,74.10
2023-04-02T13:14:02.361Z,72.80
2023-04-02T13:16:50.011Z,73.00
2023-04-02T13:19:37.189Z,73.30
2023-04-02T13:22:34.729Z,77.30
2023-04-02T13:25:28.250Z,77.40
2023-04-02T13:28:15.851Z,80.00
2023-04-02T13:31:03.114Z,80.50
2023-04-02T13:33:50.424Z,85.70
2023-04-02T13:36:37.613Z,89.10
2023-04-02T13:39:27.131Z,92.50
2023-04-02T13:42:14.240Z,92.50
2023-04-02T13:45:01.545Z,94.40
2023-04-02T13:47:48.758Z,95.10
2023-04-02T13:50:36.350Z,94.30
2023-04-02T13:53:30.391Z,94.00
2023-04-02T13:56:19.579Z,92.00
2023-04-02T13:59:07.055Z,94.10
2023-04-02T14:01:57.119Z,93.10
2023-04-02T14:04:50.531Z,89.50
2023-04-02T14:07:48.037Z,84.90
2023-04-02T14:10:59.145Z,84.70
2023-04-02T14:14:07.565Z,88.00
2023-04-02T14:17:07.613Z,88.10
2023-04-02T14:20:10.823Z,87.10
2023-04-02T14:23:16.293Z,89.50
2023-04-02T14:26:13.405Z,93.20
2023-04-02T14:29:07.846Z,93.50
2023-04-02T14:32:03.188Z,95.90
2023-04-02T14:34:56.500Z,97.70
2023-04-02T14:37:53.341Z,99.20
2023-04-02T14:40:49.527Z,99.40
2023-04-02T14:43:44.298Z,97.90
2023-04-02T14:46:37.504Z,97.10
2023-04-02T14:49:28.929Z,98.30
2023-04-02T14:52:18.800Z,95.70
2023-04-02T14:55:15.023Z,95.60
2023-04-02T14:58:05.334Z,97.70
2023-04-02T15:00:57.448Z,98.00
2023-04-02T15:03:52.915Z,97.10
2023-04-02T15:06:44.443Z,98.60
2023-04-02T15:09:35.572Z,99.10
2023-04-02T15:12:26.713Z,99.60
2023-04-02T15:15:33.173Z,98.60
2023-04-02T15:18:26.948Z,97.50
2023-04-02T15:21:55.830Z,99.80
2023-04-02T15:24:53.541Z,99.50
2023-04-02T15:28:01.214Z,98.50
2023-04-02T15:30:52.932Z,99.10
2023-04-02T15:33:45.851Z,99.80
2023-04-02T15:37:12.504Z,98.90
2023-04-02T15:40:26.309Z,100.00
2023-04-02T15:43:20.829Z,98.70
2023-04-02T15:46:16.949Z,97.70
2023-04-02T15:49:12.930Z,98.50
2023-04-02T15:52:07.986Z,97.90
2023-04-02T15:55:03.319Z,98.10
2023-04-02T15:58:21.962Z,100.00
2023-04-02T16:01:18.461Z,100.00
2023-04-02T16:04:43.404Z,99.00
2023-04-02T16:07:57.584Z,100.00
2023-04-02T16:10:47.143Z,100.00
2023-04-02T16:13:35.914Z,100.00
2023-04-02T16:16:29.896Z,100.00
2023-04-02T16:19:25.419Z,99.50
2023-04-02T16:22:19.869Z,100.00
2023-04-02T16:25:15.889Z,100.00
2023-04-02T16:28:13.756Z,100.00
2023-04-02T16:31:10.802Z,100.00
2023-04-02T16:34:03.189Z,100.00
2023-04-02T16:36:57.572Z,100.00
2023-04-02T16:39:51.302Z,100.00
2023-04-02T16:42:46.312Z,100.00
2023-04-02T16:45:43.426Z,100.00
2023-04-02T16:48:39.036Z,100.00
2023-04-02T16:51:36.092Z,100.00
2023-04-02T16:54:29.321Z,100.00
2023-04-02T16:57:27.058Z,100.00
2023-04-02T17:00:23.160Z,99.40
2023-04-02T17:03:31.406Z,98.90
2023-04-02T17:06:30.800Z,98.30
2023-04-02T17:09:22.948Z,98.40
2023-04-02T17:12:19.797Z,99.40
2023-04-02T17:15:26.678Z,100.00
2023-04-02T17:18:19.949Z,99.90
2023-04-02T17:21:09.981Z,99.20
2023-04-02T17:24:02.164Z,98.60
2023-04-02T17:26:54.708Z,99.10
2023-04-02T17:29:45.710Z,98.20
2023-04-02T17:32:33.802Z,99.10
2023-04-02T17:35:30.220Z,99.10
2023-04-02T17:38:23.565Z,99.80
2023-04-02T17:41:19.901Z,97.60
2023-04-02T17:44:26.870Z,98.10
2023-04-02T17:47:19.817Z,98.00
2023-04-02T17:50:39.142Z,97.80
2023-04-02T17:53:39.547Z,96.90
2023-04-02T17:56:47.165Z,97.10
2023-04-02T17:59:44.932Z,98.30
2023-04-02T18:02:49.444Z,96.90
2023-04-02T18:05:43.820Z,96.20
2023-04-02T18:08:39.390Z,96.50
2023-04-02T18:11:36.520Z,95.30
2023-04-02T18:14:47.034Z,95.90
2023-04-02T18:17:46.045Z,94.10
2023-04-02T18:20:40.116Z,95.80
2023-04-02T18:23:39.079Z,94.90
2023-04-02T18:26:36.720Z,93.70
2023-04-02T18:29:34.858Z,93.10
2023-04-02T18:32:42.594Z,93.70
2023-04-02T18:35:34.042Z,94.00
2023-04-02T18:38:31.558Z,92.80
2023-04-02T18:41:37.666Z,93.30
2023-04-02T18:44:42.666Z,92.20
2023-04-02T18:47:37.955Z,93.50
2023-04-02T18:50:31.749Z,94.10
2023-04-02T18:53:24.383Z,95.70
2023-04-02T18:56:16.081Z,93.30
2023-04-02T18:59:21.852Z,92.50
2023-04-02T19:02:28.171Z,93.20
2023-04-02T19:05:23.513Z,92.90
2023-04-02T19:08:17.163Z,94.70
2023-04-02T19:11:11.132Z,92.30
2023-04-02T19:14:00.936Z,91.90
2023-04-02T19:17:10.351Z,91.20
2023-04-02T19:20:06.518Z,92.00
2023-04-02T19:23:02.203Z,91.80
2023-04-02T19:26:00.549Z,91.70
2023-04-02T19:28:58.866Z,90.50
2023-04-02T19:31:54.564Z,93.00
2023-04-02T19:34:49.045Z,91.00
2023-04-02T19:37:41.612Z,87.70
2023-04-02T19:40:36.934Z,87.40
2023-04-02T19:43:24.035Z,88.40
2023-04-02T19:46:14.178Z,87.00
2023-04-02T19:49:05.912Z,87.40
2023-04-02T19:51:53.767Z,86.90
2023-04-02T19:54:41.035Z,87.50
2023-04-02T19:57:28.730Z,87.40
2023-04-02T20:00:16.760Z,89.70
2023-04-02T20:03:05.948Z,88.70
2023-04-02T20:05:53.479Z,89.10
2023-04-02T20:08:41.101Z,88.60
2023-04-02T20:11:28.540Z,87.80
2023-04-02T20:14:15.760Z,87.40
2023-04-02T20:17:03.498Z,88.50
2023-04-02T20:19:51.917Z,87.80
2023-04-02T20:22:39.034Z,89.40
2023-04-02T20:25:27.015Z,87.90
2023-04-02T20:28:14.562Z,86.90
2023-04-02T20:31:07.788Z,86.50
2023-04-02T20:33:56.228Z,85.50
2023-04-02T20:36:45.780Z,87.20
2023-04-02T20:39:32.935Z,87.70
2023-04-02T20:42:20.480Z,85.80
2023-04-02T20:45:09.269Z,86.50
2023-04-02T20:47:57.970Z,86.80
2023-04-02T20:50:46.181Z,86.00
2023-04-02T20:53:36.413Z,85.70
2023-04-02T20:56:24.542Z,85.60
2023-04-02T20:59:11.978Z,86.60
2023-04-02T21:01:59.175Z,84.60
2023-04-02T21:04:46.776Z,84.60
2023-04-02T21:07:34.362Z,86.70
2023-04-02T21:10:23.289Z,86.10
2023-04-02T21:13:10.733Z,84.80
2023-04-02T21:15:58.543Z,85.70
2023-04-02T21:18:46.972Z,84.30
2023-04-02T21:21:35.699Z,84.90
2023-04-02T21:24:22.854Z,85.20
2023-04-02T21:27:11.845Z,86.80
2023-04-02T21:29:59.045Z,84.70
2023-04-02T21:32:47.086Z,86.90
2023-04-02T21:35:34.453Z,85.80
2023-04-02T21:38:22.610Z,85.50
2023-04-02T21:41:11.499Z,85.10
2023-04-02T21:44:02.980Z,83.20
2023-04-02T21:46:53.486Z,83.80
2023-04-02T21:49:42.402Z,83.70
2023-04-02T21:52:30.005Z,84.10
2023-04-02T21:55:17.295Z,85.20
2023-04-02T21:58:04.833Z,85.60
2023-04-02T22:00:54.077Z,84.50
2023-04-02T22:03:41.257Z,84.80
2023-04-02T22:06:31.347Z,86.60
2023-04-02T22:09:21.090Z,86.00
2023-04-02T22:12:09.084Z,86.80
2023-04-02T22:14:56.271Z,88.40
2023-04-02T22:17:45.284Z,91.20
2023-04-02T22:20:32.554Z,90.00
2023-04-02T22:23:20.579Z,92.70
2023-04-02T22:26:09.740Z,93.70
2023-04-02T22:28:57.691Z,95.20
2023-04-02T22:31:44.883Z,95.60
2023-04-02T22:34:34.287Z,94.70
2023-04-02T22:37:21.893Z,95.50
2023-04-02T22:40:09.904Z,95.50
2023-04-02T22:42:57.912Z,94.90
2023-04-02T22:45:45.606Z,96.70
2023-04-02T22:48:33.784Z,95.40
2023-04-02T22:51:23.775Z,96.70
2023-04-02T22:54:11.815Z,96.90
2023-04-02T22:56:58.973Z,97.70
2023-04-02T22:59:47.401Z,97.40
2023-04-02T23:02:34.567Z,97.70
2023-04-02T23:05:22.765Z,97.60
2023-04-02T23:08:11.385Z,97.40
2023-04-02T23:11:03.889Z,99.70
2023-04-02T23:13:53.580Z,98.90
2023-04-02T23:16:41.661Z,98.20
2023-04-02T23:19:29.257Z,98.20
2023-04-02T23:22:16.390Z,97.70
2023-04-02T23:25:06.404Z,98.40
2023-04-02T23:27:53.547Z,98.10
2023-04-02T23:30:43.295Z,100.00
2023-04-02T23:33:31.256Z,100.00
2023-04-02T23:36:21.674Z,99.20
2023-04-02T23:39:13.095Z,97.80
2023-04-02T23:42:02.029Z,98.30
2023-04-02T23:44:50.216Z,99.30
2023-04-02T23:47:37.803Z,98.70
2023-04-02T23:50:25.539Z,98.20
2023-04-02T23:53:14.249Z,99.90
2023-04-02T23:56:01.987Z,99.20
2023-04-02T23:58:50.836Z,98.50
